Time;durP1;ratioP1;P1;durP2;ratioP2;P2;SDS_P1;SDS_P2;PMS_P1;PMS_P2;Temp;Humidity;BMP_temperature;BMP_pressure;BME280_temperature;BME280_humidity;BME280_pressure;Samples;Min_cycle;Max_cycle;Signal;HPM_P1;HPM_P2
2023/01/05 00:01:41;;;;;;;0.77;0.77;;;10.90;99.90;;;;;;5072973;28;20543;-54
2023/01/05 00:04:07;;;;;;;1.48;1.00;;;10.90;99.90;;;;;;5072037;28;20041;-55
2023/01/05 00:06:33;;;;;;;0.70;0.70;;;10.80;99.90;;;;;;5073253;28;20035;-52
2023/01/05 00:08:59;;;;;;;0.65;0.60;;;10.80;99.90;;;;;;5074668;28;20404;-51
2023/01/05 00:22:29;;;;;;;0.60;0.60;;;10.90;99.90;;;;;;5073393;28;20050;-56
2023/01/05 00:25:00;;;;;;;0.57;0.57;;;10.90;99.90;;;;;;5074022;28;20512;-54
2023/01/05 00:27:26;;;;;;;0.90;0.63;;;10.90;99.90;;;;;;5073611;28;20024;-55
2023/01/05 00:29:52;;;;;;;0.50;0.50;;;10.90;99.90;;;;;;5073851;28;20109;-55
2023/01/05 00:32:17;;;;;;;0.50;0.50;;;10.80;99.90;;;;;;5073282;28;20561;-51
2023/01/05 00:34:43;;;;;;;1.13;0.55;;;10.80;99.90;;;;;;5073744;28;20027;-50
2023/01/05 00:37:08;;;;;;;1.05;0.60;;;10.80;99.90;;;;;;5073426;28;20155;-57
2023/01/05 00:39:34;;;;;;;0.47;0.47;;;10.90;99.90;;;;;;5074810;28;20051;-55
2023/01/05 00:41:59;;;;;;;2.70;0.60;;;10.90;99.90;;;;;;5054788;28;20017;-54
2023/01/05 00:44:25;;;;;;;0.73;0.55;;;10.90;99.90;;;;;;5073544;28;20048;-57
2023/01/05 00:46:50;;;;;;;0.90;0.40;;;11.00;99.90;;;;;;5073516;28;20030;-54
2023/01/05 00:49:16;;;;;;;0.95;0.40;;;11.00;99.90;;;;;;5072495;28;20036;-53
2023/01/05 00:51:42;;;;;;;0.40;0.40;;;11.00;99.90;;;;;;5073379;28;20082;-56
2023/01/05 00:54:07;;;;;;;0.40;0.40;;;11.00;99.90;;;;;;5072656;28;20035;-57
2023/01/05 00:56:33;;;;;;;2.53;0.50;;;11.10;99.90;;;;;;5073177;28;20100;-55
2023/01/05 00:58:58;;;;;;;0.30;0.30;;;11.10;99.90;;;;;;5071440;28;20025;-54
2023/01/05 01:01:24;;;;;;;0.73;0.60;;;11.10;99.90;;;;;;5073255;28;20387;-56
2023/01/05 01:03:49;;;;;;;0.47;0.47;;;11.00;99.90;;;;;;5072344;28;20024;-56
2023/01/05 01:06:15;;;;;;;0.68;0.40;;;11.00;99.90;;;;;;5073086;28;20060;-56
2023/01/05 01:08:41;;;;;;;0.50;0.50;;;11.00;99.90;;;;;;5072866;28;20480;-54
2023/01/05 01:11:08;;;;;;;0.63;0.50;;;11.00;99.90;;;;;;5072980;28;20036;-57
2023/01/05 01:13:35;;;;;;;0.40;0.40;;;11.00;99.90;;;;;;5072186;28;20036;-54
2023/01/05 01:16:08;;;;;;;0.30;0.30;;;11.00;99.90;;;;;;5072962;28;20308;-52
2023/01/05 01:18:34;;;;;;;0.45;0.45;;;11.00;99.90;;;;;;5072882;28;20437;-51
2023/01/05 01:21:00;;;;;;;1.80;0.65;;;11.00;99.90;;;;;;5055232;28;20073;-50
2023/01/05 01:23:26;;;;;;;0.50;0.50;;;11.00;99.90;;;;;;5071997;28;20020;-51
2023/01/05 01:25:51;;;;;;;1.10;0.50;;;10.90;99.90;;;;;;5072923;28;20068;-51
2023/01/05 01:28:17;;;;;;;1.83;0.47;;;10.90;99.90;;;;;;5054915;28;20029;-56
2023/01/05 01:30:42;;;;;;;0.45;0.45;;;10.90;99.90;;;;;;5072564;28;20029;-50
2023/01/05 01:33:08;;;;;;;0.50;0.50;;;10.90;99.90;;;;;;5071919;28;20492;-53
2023/01/05 01:35:36;;;;;;;0.40;0.40;;;10.90;99.90;;;;;;5072379;28;20032;-56
2023/01/05 01:38:02;;;;;;;0.40;0.40;;;10.90;99.90;;;;;;5072253;28;20036;-57
2023/01/05 01:40:27;;;;;;;0.50;0.50;;;10.90;99.90;;;;;;5054518;28;20025;-56
2023/01/05 01:42:53;;;;;;;0.50;0.50;;;10.90;99.90;;;;;;5054344;28;20020;-55
2023/01/05 01:45:24;;;;;;;0.60;0.60;;;10.90;99.90;;;;;;5072386;28;20103;-54
2023/01/05 01:47:56;;;;;;;0.63;0.50;;;11.00;99.90;;;;;;5072205;28;20539;-51
2023/01/05 01:50:26;;;;;;;0.43;0.43;;;11.00;99.90;;;;;;5072490;28;20030;-54
2023/01/05 01:52:56;;;;;;;0.50;0.50;;;11.00;99.90;;;;;;5071726;28;20021;-56
2023/01/05 01:55:22;;;;;;;0.70;0.70;;;11.00;99.90;;;;;;5072225;28;20078;-57
2023/01/05 01:57:49;;;;;;;0.50;0.50;;;11.00;99.90;;;;;;5072114;28;20432;-53
2023/01/05 02:00:16;;;;;;;1.20;0.70;;;11.10;99.90;;;;;;5071194;28;20031;-55
2023/01/05 02:02:41;;;;;;;0.60;0.60;;;11.10;99.90;;;;;;5071502;28;20379;-57
2023/01/05 02:05:10;;;;;;;2.05;0.70;;;11.20;99.90;;;;;;5072325;28;20427;-55
2023/01/05 02:07:45;;;;;;;2.60;0.60;;;11.30;99.90;;;;;;5072043;28;20036;-55
2023/01/05 02:10:11;;;;;;;0.55;0.55;;;11.30;99.90;;;;;;5071996;28;20120;-55
2023/01/05 02:13:03;;;;;;;1.27;0.50;;;11.30;99.90;;;;;;5071223;28;20075;-56
2023/01/05 02:15:47;;;;;;;4.25;1.77;;;11.30;99.90;;;;;;5071975;28;20024;-53
2023/01/05 02:18:22;;;;;;;6.25;0.80;;;11.30;99.90;;;;;;5072021;28;20089;-53
2023/01/05 02:21:02;;;;;;;2.13;1.00;;;11.30;99.90;;;;;;5071877;28;20027;-54
2023/01/05 02:23:57;;;;;;;4.25;0.85;;;11.40;99.90;;;;;;5071147;28;20017;-61
2023/01/05 02:26:32;;;;;;;3.90;0.75;;;11.40;99.90;;;;;;5071938;28;20035;-53
2023/01/05 02:29:20;;;;;;;4.75;1.20;;;11.50;99.90;;;;;;5071551;28;20016;-54
2023/01/05 02:32:12;;;;;;;4.00;1.27;;;11.60;99.90;;;;;;5071305;28;20039;-55
2023/01/05 02:34:37;;;;;;;8.95;1.98;;;11.60;99.90;;;;;;5071550;28;20024;-55
2023/01/05 02:37:23;;;;;;;3.70;1.25;;;11.60;99.90;;;;;;5053189;28;20031;-54
2023/01/05 02:39:58;;;;;;;2.05;0.88;;;11.70;99.90;;;;;;5071508;28;20016;-53
2023/01/05 02:42:26;;;;;;;;;;;11.70;99.90;;;;;;5071085;28;20498;-52
2023/01/05 02:44:52;;;;;;;2.30;0.77;;;11.70;99.90;;;;;;5071458;28;20346;-56
2023/01/05 02:47:26;;;;;;;1.73;0.73;;;11.70;99.90;;;;;;5071156;28;20109;-54
2023/01/05 02:49:58;;;;;;;3.20;1.03;;;11.70;99.90;;;;;;5053316;28;20079;-56
2023/01/05 02:52:25;;;;;;;9.23;2.35;;;11.70;99.90;;;;;;5070492;28;20024;-55
2023/01/05 02:55:12;;;;;;;6.85;1.50;;;11.70;99.90;;;;;;5071236;28;20068;-51
2023/01/05 02:57:46;;;;;;;6.53;1.30;;;11.70;99.90;;;;;;5071199;28;20029;-56
2023/01/05 03:00:34;;;;;;;7.30;1.30;;;11.80;99.90;;;;;;5070261;28;20027;-56
2023/01/05 03:03:11;;;;;;;5.45;1.15;;;11.80;99.90;;;;;;5070634;28;20464;-56
2023/01/05 03:05:47;;;;;;;11.10;1.73;;;11.80;99.90;;;;;;5071087;28;20033;-54
2023/01/05 03:08:21;;;;;;;8.32;2.88;;;11.80;99.90;;;;;;5071353;28;20020;-59
2023/01/05 03:14:11;;;;;;;11.32;2.38;;;11.80;99.90;;;;;;5074521;28;20078;-51
2023/01/05 03:16:38;;;;;;;4.93;1.40;;;11.70;99.90;;;;;;5075065;28;20020;-56
2023/01/05 03:35:56;;;;;;;13.45;2.42;;;11.70;99.90;;;;;;5075099;28;20039;-55
2023/01/05 03:38:42;;;;;;;12.10;3.67;;;11.60;99.90;;;;;;5074862;28;20455;-55
2023/01/05 03:41:09;;;;;;;12.65;2.28;;;11.60;99.90;;;;;;5074791;28;20116;-50
2023/01/05 03:43:38;;;;;;;17.27;2.80;;;11.70;99.90;;;;;;5074153;28;20033;-55
2023/01/05 03:46:18;;;;;;;10.90;2.88;;;11.70;99.90;;;;;;5074892;28;20481;-54
2023/01/05 03:48:43;;;;;;;13.88;1.98;;;11.60;99.90;;;;;;5074721;28;20041;-55
2023/01/05 03:51:09;;;;;;;8.63;2.03;;;11.60;99.90;;;;;;5074631;28;20028;-53
2023/01/05 03:53:34;;;;;;;6.45;1.48;;;11.60;99.90;;;;;;5073690;28;20032;-54
2023/01/05 03:56:00;;;;;;;11.20;3.33;;;11.60;99.90;;;;;;5074339;28;20064;-55
2023/01/05 03:58:25;;;;;;;10.43;2.58;;;11.60;99.90;;;;;;5073335;28;20021;-55
2023/01/05 04:00:51;;;;;;;11.30;2.72;;;11.60;99.90;;;;;;5074118;28;20082;-54
2023/01/05 04:03:16;;;;;;;11.80;3.05;;;11.60;99.90;;;;;;5073759;28;20024;-55
2023/01/05 04:05:42;;;;;;;10.05;2.50;;;11.60;99.90;;;;;;5075075;28;20464;-53
2023/01/05 04:08:07;;;;;;;17.08;3.25;;;11.60;99.90;;;;;;5074223;28;20149;-57
2023/01/05 04:10:33;;;;;;;16.17;3.92;;;11.60;99.90;;;;;;5074283;28;20024;-52
2023/01/05 04:12:58;;;;;;;13.73;2.67;;;11.60;99.90;;;;;;5073303;28;20134;-52
2023/01/05 04:15:24;;;;;;;15.50;2.80;;;11.60;99.90;;;;;;5074014;28;20035;-55
2023/01/05 04:17:49;;;;;;;13.18;2.55;;;11.60;99.90;;;;;;5074102;28;20108;-56
2023/01/05 04:20:15;;;;;;;12.02;2.75;;;11.60;99.90;;;;;;5056003;28;20111;-56
2023/01/05 04:22:40;;;;;;;14.48;3.08;;;11.60;99.90;;;;;;5073113;28;20425;-54
2023/01/05 04:25:07;;;;;;;17.02;2.63;;;11.60;99.90;;;;;;5072908;28;20078;-54
2023/01/05 04:27:32;;;;;;;9.73;2.78;;;11.60;99.90;;;;;;5073700;28;20032;-56
2023/01/05 04:29:58;;;;;;;12.55;2.50;;;11.60;99.90;;;;;;5074090;28;20549;-51
2023/01/05 04:32:23;;;;;;;15.32;2.92;;;11.60;99.90;;;;;;5073252;28;20065;-55
2023/01/05 04:34:49;;;;;;;17.00;3.03;;;11.60;99.90;;;;;;5073704;28;20035;-56
2023/01/05 04:37:14;;;;;;;13.85;2.97;;;11.50;99.90;;;;;;5073498;28;20032;-55
2023/01/05 04:39:40;;;;;;;12.98;2.67;;;11.50;99.90;;;;;;5073732;28;20105;-55
2023/01/05 04:42:05;;;;;;;14.88;2.65;;;11.50;99.90;;;;;;5072859;28;20028;-56
2023/01/05 04:44:31;;;;;;;12.77;2.70;;;11.50;99.90;;;;;;5073569;28;20554;-56
2023/01/05 04:46:56;;;;;;;10.23;2.00;;;11.50;99.90;;;;;;5073384;28;20031;-54
2023/01/05 04:49:22;;;;;;;19.70;4.95;;;11.50;99.90;;;;;;5073311;28;20385;-56
2023/01/05 04:51:47;;;;;;;17.92;3.50;;;11.40;99.90;;;;;;5073134;28;20028;-56
2023/01/05 04:54:13;;;;;;;23.38;2.45;;;11.50;99.90;;;;;;5073220;28;20339;-53
2023/01/05 04:56:38;;;;;;;20.67;4.57;;;11.50;99.90;;;;;;5073248;28;20033;-56
2023/01/05 04:59:04;;;;;;;12.18;2.25;;;11.40;99.90;;;;;;5072461;28;20028;-55
2023/01/05 05:01:29;;;;;;;9.00;2.55;;;11.50;99.90;;;;;;5055408;28;20016;-54
2023/01/05 05:03:55;;;;;;;11.45;3.15;;;11.40;99.90;;;;;;5072505;28;20028;-55
2023/01/05 05:06:21;;;;;;;16.48;3.03;;;11.40;99.90;;;;;;5073624;28;20071;-55
2023/01/05 05:08:46;;;;;;;16.48;3.50;;;11.40;99.90;;;;;;5072827;28;20028;-54
2023/01/05 05:11:12;;;;;;;13.00;2.47;;;11.40;99.90;;;;;;5073178;28;20287;-54
2023/01/05 05:13:37;;;;;;;17.33;4.18;;;11.40;99.90;;;;;;5072165;28;20029;-52
2023/01/05 05:16:03;;;;;;;18.20;2.90;;;11.40;99.90;;;;;;5072920;28;20028;-57
2023/01/05 05:18:28;;;;;;;13.80;2.13;;;11.40;99.90;;;;;;5072741;28;20047;-55
2023/01/05 05:20:54;;;;;;;12.85;2.45;;;11.40;99.90;;;;;;5072919;28;20472;-52
2023/01/05 05:23:20;;;;;;;15.00;2.50;;;11.40;99.90;;;;;;5071909;28;20089;-52
2023/01/05 05:25:49;;;;;;;14.90;3.97;;;11.40;99.90;;;;;;5072631;28;20021;-55
2023/01/05 05:28:14;;;;;;;19.02;4.07;;;11.40;99.90;;;;;;5072574;28;20053;-54
2023/01/05 05:30:40;;;;;;;12.88;2.38;;;11.40;99.90;;;;;;5072581;28;20408;-55
2023/01/05 05:33:05;;;;;;;15.60;3.65;;;11.40;99.90;;;;;;5071707;28;20103;-51
2023/01/05 05:35:31;;;;;;;15.35;2.47;;;11.40;99.90;;;;;;5072181;28;20484;-50
2023/01/05 05:37:56;;;;;;;10.63;2.92;;;11.40;99.90;;;;;;5072152;28;20039;-52
2023/01/05 05:40:22;;;;;;;18.05;3.17;;;11.40;99.90;;;;;;5072565;28;20027;-53
2023/01/05 05:42:47;;;;;;;12.50;2.75;;;11.40;99.90;;;;;;5072253;28;20447;-53
2023/01/05 05:45:13;;;;;;;17.20;2.78;;;11.40;99.90;;;;;;5075579;28;20037;-51
2023/01/05 05:47:38;;;;;;;19.25;3.28;;;11.50;99.90;;;;;;5072456;28;20400;-52
2023/01/05 05:50:04;;;;;;;16.88;3.72;;;11.50;99.90;;;;;;5072317;28;20041;-49
2023/01/05 05:52:30;;;;;;;16.75;2.65;;;11.50;99.90;;;;;;5071326;28;20063;-50
2023/01/05 05:54:55;;;;;;;17.30;2.85;;;11.50;99.90;;;;;;5072173;28;20044;-50
2023/01/05 05:57:21;;;;;;;8.35;2.40;;;11.50;99.90;;;;;;5071904;28;20090;-51
2023/01/05 05:59:46;;;;;;;15.07;2.88;;;11.40;99.90;;;;;;5071113;28;20086;-51
2023/01/05 06:02:12;;;;;;;17.92;3.95;;;11.40;99.90;;;;;;5071714;28;20090;-50
2023/01/05 06:04:37;;;;;;;19.00;3.58;;;11.40;99.90;;;;;;5071615;28;20033;-54
2023/01/05 06:07:03;;;;;;;14.60;3.08;;;11.40;99.90;;;;;;5071717;28;20029;-50
2023/01/05 06:09:28;;;;;;;11.35;3.00;;;11.40;99.90;;;;;;5071877;28;20044;-50
2023/01/05 06:11:54;;;;;;;18.15;3.00;;;11.30;99.90;;;;;;5053357;28;20032;-52
2023/01/05 06:14:19;;;;;;;15.95;2.83;;;11.30;99.90;;;;;;5071528;28;20116;-50
2023/01/05 06:16:45;;;;;;;17.63;2.92;;;11.30;99.90;;;;;;5071562;28;20064;-52
2023/01/05 06:19:10;;;;;;;13.23;2.42;;;11.30;99.90;;;;;;5053634;28;20012;-51
2023/01/05 06:21:36;;;;;;;16.20;2.90;;;11.30;99.90;;;;;;5071784;28;20031;-52
2023/01/05 06:24:02;;;;;;;10.55;2.58;;;11.30;99.90;;;;;;5070862;28;20025;-51
2023/01/05 06:26:27;;;;;;;19.30;3.10;;;11.30;99.90;;;;;;5071517;28;20024;-53
2023/01/05 06:28:53;;;;;;;10.27;2.90;;;11.30;99.90;;;;;;5071582;28;20103;-50
2023/01/05 06:31:18;;;;;;;8.73;2.60;;;11.20;99.90;;;;;;5053570;28;20021;-54
2023/01/05 06:33:44;;;;;;;16.20;3.03;;;11.20;99.90;;;;;;5070730;28;20028;-53
2023/01/05 06:36:09;;;;;;;11.10;1.83;;;11.20;99.90;;;;;;5071578;28;20036;-55
2023/01/05 06:38:35;;;;;;;10.88;2.20;;;11.20;99.90;;;;;;5071228;28;20082;-54
2023/01/05 06:41:00;;;;;;;12.07;2.70;;;11.20;99.90;;;;;;5072483;28;20025;-51
2023/01/05 06:43:26;;;;;;;12.38;2.88;;;11.20;99.90;;;;;;5052757;28;20067;-54
2023/01/05 06:45:51;;;;;;;15.02;3.00;;;11.20;99.90;;;;;;5071268;28;20037;-54
2023/01/05 06:48:17;;;;;;;15.52;2.80;;;11.20;99.90;;;;;;5070572;28;20031;-51
2023/01/05 06:50:42;;;;;;;6.45;1.77;;;11.20;99.90;;;;;;5071340;28;20032;-55
2023/01/05 06:53:08;;;;;;;9.27;2.53;;;11.20;99.90;;;;;;5070484;28;20029;-52
2023/01/05 06:55:33;;;;;;;12.85;2.17;;;11.20;99.90;;;;;;5071412;28;20530;-56
2023/01/05 06:57:59;;;;;;;10.57;2.35;;;11.20;99.90;;;;;;5071772;28;20119;-56
2023/01/05 07:00:24;;;;;;;14.20;2.40;;;11.20;99.90;;;;;;5070335;28;20036;-55
2023/01/05 07:02:50;;;;;;;10.98;2.83;;;11.20;99.90;;;;;;5071287;28;20025;-54
2023/01/05 07:05:16;;;;;;;9.35;1.83;;;11.20;99.90;;;;;;5071798;28;20086;-55
2023/01/05 07:07:41;;;;;;;9.57;2.05;;;11.20;99.90;;;;;;5071763;28;20423;-52
2023/01/05 07:10:07;;;;;;;6.90;1.85;;;11.20;99.90;;;;;;5071659;28;20031;-54
2023/01/05 07:12:33;;;;;;;9.45;2.08;;;11.20;99.90;;;;;;5070267;28;20024;-52
2023/01/05 07:14:58;;;;;;;15.95;3.60;;;11.10;99.90;;;;;;5070989;28;20108;-53
2023/01/05 07:17:24;;;;;;;8.23;2.33;;;11.10;99.90;;;;;;5071105;28;20048;-54
2023/01/05 07:19:50;;;;;;;15.45;2.50;;;11.00;99.90;;;;;;5071415;28;20484;-53
2023/01/05 07:22:15;;;;;;;10.55;2.60;;;11.00;99.90;;;;;;5070144;28;20021;-56
2023/01/05 07:24:41;;;;;;;9.25;1.63;;;10.90;99.90;;;;;;5071101;28;20099;-55
2023/01/05 07:27:06;;;;;;;8.15;1.98;;;10.90;99.90;;;;;;5070823;28;20036;-52
2023/01/05 07:29:32;;;;;;;20.80;4.10;;;11.00;99.90;;;;;;5070825;28;20186;-56
2023/01/05 07:31:58;;;;;;;8.40;1.75;;;10.90;99.90;;;;;;5070144;28;20033;-55
2023/01/05 07:34:23;;;;;;;8.43;2.30;;;10.90;99.90;;;;;;5070867;28;20094;-50
2023/01/05 07:36:49;;;;;;;10.07;2.60;;;10.90;99.90;;;;;;5052624;28;20025;-56
2023/01/05 07:39:15;;;;;;;8.88;1.73;;;10.90;99.90;;;;;;5070872;28;20520;-55
2023/01/05 07:41:41;;;;;;;9.45;1.60;;;10.80;99.90;;;;;;5070836;28;20557;-54
2023/01/05 07:44:06;;;;;;;9.48;1.85;;;10.80;99.90;;;;;;5069913;28;20105;-53
2023/01/05 07:46:32;;;;;;;8.40;1.20;;;10.80;99.90;;;;;;5070762;28;20420;-54
2023/01/05 07:48:58;;;;;;;6.20;1.60;;;10.80;99.90;;;;;;5070766;28;20484;-54
2023/01/05 07:51:24;;;;;;;10.73;2.08;;;10.80;99.90;;;;;;5070784;28;20039;-56
2023/01/05 07:53:50;;;;;;;5.55;1.85;;;10.70;99.90;;;;;;5069914;28;20025;-54
2023/01/05 07:56:16;;;;;;;8.55;2.15;;;10.70;99.90;;;;;;5070423;28;20109;-53
2023/01/05 07:58:42;;;;;;;6.93;2.60;;;10.70;99.90;;;;;;5053168;28;20032;-54
2023/01/05 08:01:10;;;;;;;12.18;2.22;;;10.70;99.90;;;;;;5074298;28;20024;-54
2023/01/05 08:03:36;;;;;;;10.02;1.90;;;10.70;99.90;;;;;;5055838;28;20028;-55
2023/01/05 08:06:07;;;;;;;12.88;1.60;;;10.70;99.90;;;;;;5074350;28;20081;-55
2023/01/05 08:08:33;;;;;;;16.15;2.45;;;10.70;99.90;;;;;;5074133;28;20457;-56
2023/01/05 08:10:58;;;;;;;12.75;1.83;;;10.60;99.90;;;;;;5074164;28;20040;-55
2023/01/05 08:16:08;;;;;;;9.20;2.58;;;10.60;99.90;;;;;;5074647;28;20039;-55
2023/01/05 08:18:33;;;;;;;15.13;2.80;;;10.60;99.90;;;;;;5074394;28;20025;-55
2023/01/05 08:21:03;;;;;;;9.98;1.90;;;10.60;99.90;;;;;;5073994;28;20052;-52
2023/01/05 08:23:30;;;;;;;10.70;2.63;;;10.60;99.90;;;;;;5072424;28;20458;-51
2023/01/05 08:25:56;;;;;;;10.98;2.67;;;10.70;99.90;;;;;;5066346;28;20025;-50
2023/01/05 08:28:23;;;;;;;15.70;3.05;;;10.70;99.90;;;;;;5038677;28;20028;-51
2023/01/05 08:30:48;;;;;;;10.57;1.80;;;10.70;99.90;;;;;;5064944;28;20033;-52
2023/01/05 08:33:14;;;;;;;21.60;2.92;;;10.80;99.90;;;;;;5073077;28;20098;-53
2023/01/05 08:35:44;;;;;;;16.98;4.28;;;10.80;99.90;;;;;;5073731;28;20036;-47
2023/01/05 08:38:10;;;;;;;14.90;3.40;;;10.90;99.90;;;;;;5059222;28;20040;-54
2023/01/05 08:40:38;;;;;;;15.43;3.63;;;10.90;99.90;;;;;;5073490;28;20074;-53
2023/01/05 08:43:05;;;;;;;6.60;2.50;;;10.90;99.90;;;;;;5072911;28;20099;-53
2023/01/05 08:45:31;;;;;;;11.23;2.25;;;10.90;99.90;;;;;;5073910;28;20036;-53
2023/01/05 08:47:57;;;;;;;14.98;2.90;;;10.90;99.90;;;;;;5055549;28;20029;-52
2023/01/05 08:50:22;;;;;;;12.35;2.63;;;10.90;99.90;;;;;;5071564;28;20495;-49
2023/01/05 08:52:48;;;;;;;10.50;2.10;;;11.00;99.90;;;;;;5072727;28;20511;-49
2023/01/05 08:55:13;;;;;;;16.15;3.10;;;11.10;99.90;;;;;;5072892;28;20487;-58
2023/01/05 08:57:39;;;;;;;14.85;3.78;;;11.20;99.90;;;;;;5072822;28;20038;-58
2023/01/05 09:00:05;;;;;;;14.50;3.67;;;11.20;99.90;;;;;;5073211;28;20028;-55
2023/01/05 09:02:31;;;;;;;12.15;2.75;;;11.20;99.90;;;;;;5071849;28;20047;-51
2023/01/05 09:04:56;;;;;;;10.07;2.97;;;11.30;99.90;;;;;;5073084;28;20024;-57
2023/01/05 09:07:22;;;;;;;9.95;2.38;;;11.30;99.90;;;;;;5071632;28;20032;-57
2023/01/05 09:09:47;;;;;;;12.02;2.13;;;11.30;99.90;;;;;;5071663;28;20392;-49
2023/01/05 09:12:13;;;;;;;13.18;2.50;;;11.30;99.90;;;;;;5071870;28;20033;-54
2023/01/05 09:14:38;;;;;;;13.70;3.05;;;11.30;99.90;;;;;;5072878;28;20021;-54
2023/01/05 09:17:04;;;;;;;15.63;2.72;;;11.30;99.90;;;;;;5072385;28;20402;-56
2023/01/05 09:19:30;;;;;;;14.48;3.30;;;11.30;99.90;;;;;;5072797;28;20500;-49
2023/01/05 09:21:55;;;;;;;9.80;2.53;;;11.30;99.90;;;;;;5071420;28;20020;-55
2023/01/05 09:24:21;;;;;;;14.45;2.63;;;11.40;99.90;;;;;;5072568;28;20025;-52
2023/01/05 09:26:47;;;;;;;15.55;3.05;;;11.30;99.90;;;;;;5072201;28;20033;-51
2023/01/05 09:29:13;;;;;;;14.93;3.97;;;11.40;99.90;;;;;;5072963;28;20027;-50
2023/01/05 09:31:42;;;;;;;7.30;2.05;;;11.40;99.90;;;;;;5072425;28;20043;-50
2023/01/05 09:34:08;;;;;;;15.02;2.38;;;11.50;99.90;;;;;;5072541;28;20021;-54
2023/01/05 09:36:33;;;;;;;11.77;2.78;;;11.50;99.90;;;;;;5072346;28;20025;-53
2023/01/05 09:38:59;;;;;;;12.20;2.67;;;11.50;99.90;;;;;;5073169;28;20107;-53
2023/01/05 09:41:31;;;;;;;9.73;3.00;;;11.60;99.90;;;;;;5070807;28;20396;-49
2023/01/05 09:44:03;;;;;;;10.63;2.13;;;11.60;99.90;;;;;;5071759;28;20103;-54
2023/01/05 09:46:33;;;;;;;9.77;2.08;;;11.60;99.90;;;;;;5072807;28;20112;-53
2023/01/05 09:49:02;;;;;;;13.23;2.72;;;11.60;99.90;;;;;;5071829;28;20046;-53
2023/01/05 09:51:28;;;;;;;7.22;1.92;;;11.70;99.90;;;;;;5072342;28;20119;-56
2023/01/05 09:53:54;;;;;;;12.68;2.83;;;11.70;99.90;;;;;;5053629;28;20358;-53
2023/01/05 09:56:35;;;;;;;9.95;2.22;;;11.80;99.90;;;;;;5071408;28;20123;-52
2023/01/05 09:59:12;;;;;;;11.10;2.13;;;11.80;99.90;;;;;;5071801;28;20085;-55
2023/01/05 10:01:39;;;;;;;11.65;2.58;;;11.80;99.90;;;;;;5071223;28;20036;-53
2023/01/05 10:04:17;;;;;;;14.13;2.53;;;11.90;99.90;;;;;;5070182;28;20392;-54
2023/01/05 10:06:48;;;;;;;8.07;2.53;;;11.90;99.90;;;;;;5071756;28;20033;-56
2023/01/05 10:09:23;;;;;;;16.00;2.47;;;11.80;99.90;;;;;;5054916;28;20427;-50
2023/01/05 10:15:17;;;;;;;22.15;3.38;;;11.90;99.90;;;;;;5072141;28;20046;-51
2023/01/05 10:17:43;;;;;;;13.82;2.55;;;11.90;99.90;;;;;;5070630;28;20035;-49
2023/01/05 10:20:40;;;;;;;13.45;3.15;;;12.00;99.90;;;;;;5071843;28;20024;-50
2023/01/05 10:23:21;;;;;;;13.10;2.72;;;12.00;99.90;;;;;;5070180;28;20046;-50
2023/01/05 10:26:12;;;;;;;18.27;4.07;;;12.00;99.90;;;;;;5071747;28;20031;-50
2023/01/05 10:28:52;;;;;;;16.92;2.58;;;12.00;99.90;;;;;;5039350;28;20494;-54
2023/01/05 10:31:27;;;;;;;13.50;3.45;;;12.00;99.90;;;;;;5061450;28;20059;-51
2023/01/05 10:34:06;;;;;;;14.35;2.90;;;12.00;99.90;;;;;;5065943;28;20021;-60
2023/01/05 10:37:11;;;;;;;12.57;2.38;;;11.90;99.90;;;;;;5051267;28;20415;-49
2023/01/05 10:40:15;;;;;;;18.63;4.43;;;12.00;99.90;;;;;;5051327;28;20032;-54
2023/01/05 10:43:02;;;;;;;14.18;4.22;;;12.00;99.90;;;;;;5050114;28;20024;-51
2023/01/05 10:45:29;;;;;;;15.45;2.95;;;12.00;99.90;;;;;;5049812;28;20491;-53
2023/01/05 10:47:55;;;;;;;15.55;2.75;;;12.00;99.90;;;;;;5063661;28;20036;-54
2023/01/05 10:50:24;;;;;;;13.65;3.95;;;12.00;99.90;;;;;;5069938;28;20079;-51
2023/01/05 10:52:52;;;;;;;22.65;4.15;;;12.00;99.90;;;;;;5069704;28;20027;-55
2023/01/05 10:55:20;;;;;;;14.02;3.25;;;12.00;99.90;;;;;;5069241;28;20013;-52
2023/01/05 10:57:47;;;;;;;20.92;3.20;;;12.00;99.90;;;;;;5052343;28;20052;-55
2023/01/05 11:00:15;;;;;;;21.60;3.60;;;12.10;99.90;;;;;;5066711;28;20102;-53
2023/01/05 11:03:02;;;;;;;22.88;2.97;;;12.10;99.90;;;;;;5050209;28;20025;-51
2023/01/05 11:05:42;;;;;;;15.00;4.75;;;12.20;99.90;;;;;;5049589;28;20124;-53
2023/01/05 11:08:17;;;;;;;23.55;5.25;;;12.30;99.90;;;;;;5050979;28;20664;-56
2023/01/05 11:10:51;;;;;;;14.95;3.30;;;12.30;99.90;;;;;;5050507;28;20021;-55
2023/01/05 11:13:21;;;;;;;13.95;3.50;;;12.30;99.90;;;;;;5055064;28;20100;-52
2023/01/05 11:15:55;;;;;;;21.77;3.55;;;12.30;99.90;;;;;;5050835;28;20447;-50
2023/01/05 11:18:26;;;;;;;16.90;3.53;;;12.40;99.90;;;;;;5032910;28;20048;-49
2023/01/05 11:21:16;;;;;;;13.98;3.13;;;12.40;99.90;;;;;;5050563;28;20400;-50
2023/01/05 11:23:43;;;;;;;21.20;4.32;;;12.40;99.90;;;;;;5050174;28;20144;-51
2023/01/05 11:26:14;;;;;;;11.68;2.67;;;12.50;99.90;;;;;;5057127;28;20509;-52
2023/01/05 11:28:58;;;;;;;14.10;3.55;;;12.50;99.90;;;;;;5046998;28;20142;-51
2023/01/05 11:31:41;;;;;;;13.35;3.08;;;12.50;99.90;;;;;;5050437;28;20032;-50
2023/01/05 11:34:35;;;;;;;15.05;3.72;;;12.60;99.90;;;;;;5068073;28;20025;-48
2023/01/05 11:37:16;;;;;;;21.10;3.80;;;12.60;99.90;;;;;;5069554;28;20487;-49
2023/01/05 11:39:53;;;;;;;21.58;3.50;;;12.60;99.90;;;;;;5054719;28;20033;-49
2023/01/05 11:42:34;;;;;;;24.70;4.18;;;12.70;99.90;;;;;;5053878;28;20013;-53
2023/01/05 11:45:00;;;;;;;15.00;4.10;;;12.60;99.90;;;;;;5072496;28;20033;-54
2023/01/05 11:47:38;;;;;;;22.23;3.50;;;12.60;99.90;;;;;;5074265;28;20388;-57
2023/01/05 11:50:13;;;;;;;16.02;3.95;;;12.70;99.90;;;;;;5074238;28;20044;-51
2023/01/05 11:52:44;;;;;;;22.42;3.60;;;12.70;99.90;;;;;;5073535;28;20506;-48
2023/01/05 11:55:18;;;;;;;20.50;4.25;;;12.70;99.90;;;;;;5074547;28;20029;-51
2023/01/05 11:57:44;;;;;;;13.65;3.08;;;12.70;99.90;;;;;;5056799;28;20031;-51
2023/01/05 12:00:22;;;;;;;24.00;5.40;;;12.70;99.90;;;;;;5074523;28;20116;-50
2023/01/05 12:03:03;;;;;;;16.20;4.28;;;12.80;99.90;;;;;;5071843;28;20024;-52
2023/01/05 12:06:19;;;;;;;19.70;4.57;;;12.80;99.90;;;;;;5074361;28;20024;-51
2023/01/05 12:09:00;;;;;;;19.38;4.95;;;12.80;99.90;;;;;;4972752;28;20030;-48
2023/01/05 12:11:31;;;;;;;24.65;4.50;;;12.80;99.90;;;;;;5074434;28;20464;-51
2023/01/05 12:13:57;;;;;;;22.40;4.13;;;12.70;99.90;;;;;;5073277;28;20509;-49
2023/01/05 12:16:48;;;;;;;22.33;4.90;;;12.70;99.90;;;;;;5073999;28;20025;-50
2023/01/05 12:19:35;;;;;;;11.40;3.40;;;12.70;99.90;;;;;;5073993;28;20021;-51
2023/01/05 12:22:27;;;;;;;12.02;2.80;;;12.70;99.90;;;;;;5073331;28;20031;-49
2023/01/05 12:25:16;;;;;;;10.90;3.30;;;12.70;99.90;;;;;;5074558;28;20020;-48
2023/01/05 12:27:58;;;;;;;20.65;3.45;;;12.80;99.90;;;;;;5073613;28;20066;-51
2023/01/05 12:30:56;;;;;;;17.52;2.95;;;12.90;99.90;;;;;;5074046;28;20039;-50
2023/01/05 12:33:30;;;;;;;21.75;5.03;;;12.90;99.90;;;;;;5037630;28;20488;-51
2023/01/05 12:36:08;;;;;;;19.00;3.95;;;12.90;99.90;;;;;;5073784;28;20445;-49
2023/01/05 12:39:11;;;;;;;18.55;3.85;;;12.80;99.90;;;;;;5073625;28;20059;-48
2023/01/05 12:42:16;;;;;;;13.20;3.00;;;12.70;99.90;;;;;;5096543;22;20044;-46
2023/01/05 12:45:18;;;;;;;25.80;3.72;;;12.70;99.90;;;;;;5072823;28;20100;-49
2023/01/05 12:47:56;;;;;;;12.88;3.28;;;12.70;99.90;;;;;;5073561;28;20043;-47
2023/01/05 12:50:51;;;;;;;14.85;4.55;;;12.60;99.90;;;;;;5073795;28;20021;-51
2023/01/05 12:53:26;;;;;;;16.95;3.28;;;12.60;99.90;;;;;;5054698;28;20016;-48
2023/01/05 12:55:58;;;;;;;18.85;3.85;;;12.60;99.90;;;;;;5071691;28;20419;-52
2023/01/05 12:58:34;;;;;;;14.68;3.67;;;12.60;99.90;;;;;;5073501;28;20021;-49
2023/01/05 13:01:02;;;;;;;15.27;3.35;;;12.60;99.90;;;;;;5073615;28;20081;-48
2023/01/05 13:03:34;;;;;;;12.70;2.90;;;12.60;99.90;;;;;;5054360;28;20496;-49
2023/01/05 13:06:10;;;;;;;15.27;3.22;;;12.60;99.90;;;;;;5073161;28;20021;-50
2023/01/05 13:08:38;;;;;;;;;;;12.70;99.90;;;;;;5055477;28;20400;-48
2023/01/05 13:11:16;;;;;;;14.88;3.38;;;12.70;99.90;;;;;;5072913;28;19912;-49
2023/01/05 13:13:47;;;;;;;15.27;3.92;;;12.70;99.90;;;;;;5072294;28;20032;-48
2023/01/05 13:16:22;;;;;;;11.27;3.22;;;12.80;99.90;;;;;;5073175;28;20025;-49
2023/01/05 13:19:23;;;;;;;18.98;3.10;;;12.80;99.90;;;;;;5072985;28;20023;-49
2023/01/05 13:21:51;;;;;;;15.65;3.80;;;12.90;99.90;;;;;;5068852;28;20586;-53
2023/01/05 13:24:27;;;;;;;22.65;4.85;;;12.90;99.90;;;;;;5072428;28;20025;-47
2023/01/05 13:26:54;;;;;;;19.83;4.45;;;12.90;99.90;;;;;;5072482;28;20606;-49
2023/01/05 13:29:31;;;;;;;11.73;3.00;;;12.90;99.90;;;;;;5072335;28;20047;-47
2023/01/05 13:32:39;;;;;;;12.13;2.67;;;12.80;99.90;;;;;;5071698;28;20063;-49
2023/01/05 13:35:13;;;;;;;10.32;3.42;;;12.70;99.90;;;;;;5072332;28;20032;-47